Time;durP1;ratioP1;P1;durP2;ratioP2;P2;SDS_P1;SDS_P2;PMS_P1;PMS_P2;Temp;Humidity;BMP_temperature;BMP_pressure;BME280_temperature;BME280_humidity;BME280_pressure;Samples;Min_cycle;Max_cycle;Signal;HPM_P1;HPM_P2
2022/07/03 00:01:48;;;;;;;3.22;2.05;;;18.40;1.00;;;;;;5049249;28;20227;-63
2022/07/03 00:04:15;;;;;;;2.45;1.95;;;18.10;1.00;;;;;;5038439;28;20400;-63
2022/07/03 00:06:42;;;;;;;2.53;2.15;;;18.10;1.00;;;;;;5051149;28;20212;-63
2022/07/03 00:09:11;;;;;;;2.58;1.83;;;18.10;1.00;;;;;;5043022;28;20205;-63
2022/07/03 00:11:38;;;;;;;3.05;2.00;;;;;;;;;;5052873;28;20197;-64
2022/07/03 00:14:05;;;;;;;4.72;1.80;;;18.10;99.90;;;;;;5045944;28;20201;-63
2022/07/03 00:16:32;;;;;;;3.25;2.10;;;17.90;99.90;;;;;;5000129;28;20225;-64
2022/07/03 00:18:58;;;;;;;2.90;1.90;;;17.90;99.90;;;;;;5016648;28;20745;-64
2022/07/03 00:21:29;;;;;;;14.00;1.90;;;19.20;99.90;;;;;;5023514;28;20233;-64
2022/07/03 00:24:01;;;;;;;3.05;2.08;;;16.60;99.90;;;;;;5026407;28;20205;-63
2022/07/03 00:26:33;;;;;;;4.22;2.20;;;18.00;99.90;;;;;;5024103;28;20209;-63
2022/07/03 00:29:01;;;;;;;4.00;2.03;;;18.10;1.00;;;;;;5017375;28;20232;-63
2022/07/03 00:31:30;;;;;;;4.28;2.20;;;17.90;1.00;;;;;;5012648;28;20233;-64
2022/07/03 00:33:59;;;;;;;4.68;2.25;;;17.60;1.00;;;;;;4999391;28;20233;-63
2022/07/03 00:36:30;;;;;;;3.38;2.10;;;17.90;1.00;;;;;;5020553;28;20790;-64
2022/07/03 00:38:56;;;;;;;5.18;2.47;;;17.90;1.00;;;;;;5036300;28;20224;-64
2022/07/03 00:41:29;;;;;;;10.02;2.72;;;18.20;1.00;;;;;;5016930;28;20232;-64
2022/07/03 00:43:56;;;;;;;2.47;2.22;;;17.90;1.00;;;;;;5040800;28;20201;-64
2022/07/03 00:46:24;;;;;;;5.72;2.20;;;17.80;1.00;;;;;;5016744;28;20217;-64
2022/07/03 00:48:53;;;;;;;1.83;1.73;;;17.90;1.00;;;;;;5040548;28;20202;-64
2022/07/03 00:51:22;;;;;;;2.67;1.83;;;18.60;1.00;;;;;;5019061;28;20198;-64
2022/07/03 00:53:52;;;;;;;2.20;2.00;;;17.90;1.00;;;;;;5037450;28;20221;-64
2022/07/03 00:56:24;;;;;;;2.85;1.88;;;17.80;1.00;;;;;;5029806;28;20228;-64
2022/07/03 00:58:54;;;;;;;2.40;2.20;;;17.90;1.00;;;;;;5034455;28;20236;-64
2022/07/03 01:01:22;;;;;;;3.95;2.45;;;17.90;1.00;;;;;;5024650;28;20209;-64
2022/07/03 01:03:53;;;;;;;2.40;1.95;;;17.90;99.90;;;;;;5046593;28;20726;-63
2022/07/03 01:06:21;;;;;;;2.28;2.08;;;17.90;99.90;;;;;;5035232;28;20201;-64
2022/07/03 01:08:51;;;;;;;2.63;2.10;;;17.90;99.90;;;;;;5036409;28;20232;-64
2022/07/03 01:11:22;;;;;;;3.75;2.75;;;17.90;99.90;;;;;;5037648;28;20277;-63
2022/07/03 01:14:03;;;;;;;5.43;2.85;;;17.80;99.90;;;;;;5034441;28;20221;-63
2022/07/03 01:16:34;;;;;;;2.75;2.55;;;19.50;99.90;;;;;;5031614;28;20241;-64
2022/07/03 01:19:11;;;;;;;3.30;2.30;;;17.80;99.90;;;;;;5044972;28;20196;-63
2022/07/03 01:21:50;;;;;;;4.63;2.35;;;17.80;1.00;;;;;;5031933;28;20365;-63
2022/07/03 01:24:44;;;;;;;2.50;2.30;;;17.40;1.00;;;;;;5037317;28;20255;-63
2022/07/03 01:27:19;;;;;;;2.58;2.33;;;17.60;1.00;;;;;;5031526;28;20586;-63
2022/07/03 01:29:54;;;;;;;3.75;2.10;;;17.40;1.00;;;;;;5032474;28;20216;-63
2022/07/03 01:32:24;;;;;;;6.80;2.80;;;17.50;1.00;;;;;;5025045;28;20220;-64
2022/07/03 01:34:54;;;;;;;6.45;2.40;;;17.50;1.00;;;;;;5046163;28;20760;-63
2022/07/03 01:37:24;;;;;;;2.45;1.90;;;17.30;1.00;;;;;;5025737;28;20225;-63
2022/07/03 01:39:53;;;;;;;2.83;2.50;;;16.90;1.00;;;;;;5039209;28;20217;-63
2022/07/03 01:42:25;;;;;;;3.30;2.47;;;17.10;1.00;;;;;;5009795;28;20676;-63
2022/07/03 01:44:53;;;;;;;3.38;2.30;;;17.00;1.00;;;;;;5041107;28;20230;-64
2022/07/03 01:47:24;;;;;;;3.03;2.60;;;17.00;1.00;;;;;;5034723;28;20274;-63
2022/07/03 01:49:52;;;;;;;6.68;2.60;;;16.80;1.00;;;;;;5047843;28;20201;-63
2022/07/03 01:52:21;;;;;;;3.22;2.92;;;16.50;1.00;;;;;;5028020;28;20738;-63
2022/07/03 01:54:49;;;;;;;4.15;2.75;;;16.90;1.00;;;;;;5031734;28;20227;-63
2022/07/03 01:57:16;;;;;;;5.57;2.80;;;16.90;1.00;;;;;;5027323;28;20197;-63
2022/07/03 01:59:44;;;;;;;4.15;2.72;;;16.90;1.00;;;;;;5043719;28;20197;-63
2022/07/03 02:02:21;;;;;;;2.85;2.55;;;17.00;1.00;;;;;;5043401;28;20216;-63
2022/07/03 02:04:58;;;;;;;2.90;2.58;;;16.70;1.00;;;;;;5028702;28;20211;-63
2022/07/03 02:07:34;;;;;;;3.72;2.70;;;17.00;1.00;;;;;;5030097;28;20227;-63
2022/07/03 02:10:04;;;;;;;2.75;2.38;;;16.90;1.00;;;;;;5033586;28;20201;-63
2022/07/03 02:12:40;;;;;;;5.13;2.85;;;16.80;1.00;;;;;;5022077;28;20965;-64
2022/07/03 02:15:10;;;;;;;6.75;2.90;;;16.80;1.00;;;;;;5038781;28;20224;-63
2022/07/03 02:17:39;;;;;;;6.57;3.55;;;18.20;1.00;;;;;;5023676;28;20256;-64
2022/07/03 02:20:08;;;;;;;3.40;2.80;;;16.80;1.00;;;;;;5022188;28;21039;-63
2022/07/03 02:22:37;;;;;;;4.40;3.13;;;17.10;1.00;;;;;;5028200;28;20278;-63
2022/07/03 02:25:06;;;;;;;3.30;3.00;;;16.80;1.00;;;;;;5008334;28;20364;-63
2022/07/03 02:27:40;;;;;;;3.65;3.03;;;16.80;1.00;;;;;;5018896;28;20229;-63
2022/07/03 02:30:09;;;;;;;6.53;3.13;;;16.80;1.00;;;;;;5026428;28;20808;-64
2022/07/03 02:32:39;;;;;;;4.18;2.95;;;16.90;1.00;;;;;;5031656;28;20235;-64
2022/07/03 02:35:07;;;;;;;6.30;3.15;;;16.70;1.70;;;;;;5012413;28;20244;-65
2022/07/03 02:37:42;;;;;;;10.23;3.10;;;16.90;1.00;;;;;;5039177;28;20246;-63
2022/07/03 02:40:17;;;;;;;4.55;3.35;;;16.80;5.80;;;;;;5017882;28;20221;-64
2022/07/03 02:42:51;;;;;;;4.30;3.00;;;16.80;4.10;;;;;;5031371;28;20283;-65
2022/07/03 02:45:22;;;;;;;7.15;3.10;;;16.90;8.70;;;;;;5028199;28;20210;-64
2022/07/03 02:47:58;;;;;;;3.80;3.13;;;17.80;11.40;;;;;;5031872;28;20218;-64
2022/07/03 02:50:28;;;;;;;3.25;2.80;;;16.80;16.60;;;;;;5027054;28;20703;-64
2022/07/03 02:53:02;;;;;;;3.30;3.00;;;17.10;15.40;;;;;;5042426;28;20208;-64
2022/07/03 02:55:43;;;;;;;3.58;3.13;;;17.00;12.40;;;;;;5020004;28;20233;-64
2022/07/03 02:58:33;;;;;;;4.82;2.92;;;17.00;14.70;;;;;;5031282;28;20200;-64
2022/07/03 03:01:09;;;;;;;3.47;3.17;;;17.00;17.10;;;;;;5025738;28;20201;-64
2022/07/03 03:03:37;;;;;;;3.72;3.10;;;17.30;24.70;;;;;;5030604;28;20224;-63
2022/07/03 03:06:08;;;;;;;4.85;3.08;;;16.90;20.70;;;;;;5025855;28;20224;-64
2022/07/03 03:08:41;;;;;;;4.10;3.53;;;16.80;22.40;;;;;;5036512;28;20222;-64
2022/07/03 03:11:15;;;;;;;4.05;3.42;;;16.60;28.50;;;;;;5004398;28;20221;-64
2022/07/03 03:13:46;;;;;;;4.78;2.97;;;16.90;25.30;;;;;;5044331;28;20211;-64
2022/07/03 03:16:16;;;;;;;4.50;3.33;;;16.80;28.90;;;;;;5021911;28;20220;-64
2022/07/03 03:18:43;;;;;;;11.88;4.72;;;16.80;32.10;;;;;;5045484;28;20254;-64
2022/07/03 03:21:11;;;;;;;4.38;3.10;;;17.00;37.00;;;;;;5016199;28;20221;-64
2022/07/03 03:23:48;;;;;;;6.32;3.25;;;17.00;38.50;;;;;;5036110;28;20205;-63
2022/07/03 03:26:16;;;;;;;4.13;3.45;;;17.00;37.10;;;;;;5034608;28;20205;-64
2022/07/03 03:28:43;;;;;;;4.25;3.25;;;17.00;39.50;;;;;;5041419;28;20208;-64
2022/07/03 03:31:09;;;;;;;5.20;3.30;;;17.30;45.60;;;;;;5027569;28;20220;-64
2022/07/03 03:33:41;;;;;;;4.10;3.22;;;17.10;43.00;;;;;;5044310;28;20294;-63
2022/07/03 03:36:13;;;;;;;4.97;2.97;;;17.20;42.50;;;;;;5028042;28;20291;-64
2022/07/03 03:38:41;;;;;;;4.45;3.13;;;17.10;41.60;;;;;;5031228;28;20201;-64
2022/07/03 03:41:09;;;;;;;3.97;3.40;;;17.20;38.10;;;;;;5032790;28;20244;-65
2022/07/03 03:43:36;;;;;;;4.60;3.28;;;17.20;42.60;;;;;;5037887;28;20475;-64
2022/07/03 03:46:03;;;;;;;9.95;2.90;;;17.30;40.60;;;;;;5043245;28;20223;-64
2022/07/03 03:48:32;;;;;;;4.55;3.22;;;17.30;38.40;;;;;;5032919;28;20212;-65
2022/07/03 03:51:02;;;;;;;5.15;2.83;;;17.10;34.60;;;;;;5042771;28;20212;-62
2022/07/03 03:53:29;;;;;;;5.80;3.28;;;18.40;35.20;;;;;;5023381;28;20974;-62
2022/07/03 03:56:04;;;;;;;5.63;2.67;;;17.20;31.90;;;;;;5032803;28;20786;-64
2022/07/03 03:58:33;;;;;;;4.78;2.85;;;17.10;37.30;;;;;;5021522;28;20216;-64
2022/07/03 04:01:03;;;;;;;4.28;3.33;;;17.30;35.70;;;;;;5035063;28;20201;-64
2022/07/03 04:03:30;;;;;;;8.80;3.35;;;17.30;35.80;;;;;;5033646;28;20565;-64
2022/07/03 04:05:57;;;;;;;6.28;3.20;;;17.30;34.60;;;;;;5033439;28;20217;-64
2022/07/03 04:08:26;;;;;;;5.07;2.88;;;17.40;34.90;;;;;;5023226;28;20229;-64
2022/07/03 04:10:53;;;;;;;6.72;3.25;;;17.50;36.90;;;;;;5036290;28;20205;-63
2022/07/03 04:13:21;;;;;;;5.00;2.80;;;;;;;;;;5019884;28;20201;-64
2022/07/03 04:15:48;;;;;;;5.18;3.33;;;17.40;33.20;;;;;;5033829;28;20550;-63
2022/07/03 04:18:15;;;;;;;4.30;2.67;;;17.30;35.60;;;;;;5029260;28;20216;-64
2022/07/03 04:20:42;;;;;;;7.90;3.05;;;17.40;33.20;;;;;;5029609;28;20208;-64
2022/07/03 04:23:09;;;;;;;5.32;2.80;;;17.50;39.50;;;;;;5034024;28;20212;-64
2022/07/03 04:25:37;;;;;;;9.70;2.72;;;17.30;37.30;;;;;;5030940;28;20662;-64
2022/07/03 04:28:04;;;;;;;7.43;3.10;;;17.30;43.80;;;;;;5035217;28;20207;-64
2022/07/03 04:30:31;;;;;;;13.20;3.30;;;17.30;49.70;;;;;;5022359;28;20220;-64
2022/07/03 04:32:58;;;;;;;10.07;3.10;;;17.10;56.50;;;;;;5033625;28;21162;-64
2022/07/03 04:35:25;;;;;;;7.78;2.95;;;17.50;59.00;;;;;;5042655;28;20232;-64
2022/07/03 04:37:51;;;;;;;5.65;3.10;;;17.30;56.70;;;;;;5046791;28;20231;-64
2022/07/03 04:40:18;;;;;;;3.25;2.75;;;17.10;62.70;;;;;;5014395;28;20240;-64
2022/07/03 04:42:46;;;;;;;10.40;2.90;;;17.30;64.30;;;;;;5035333;28;20237;-64
2022/07/03 04:45:14;;;;;;;6.68;3.20;;;;;;;;;;5030089;28;20200;-64
2022/07/03 04:47:41;;;;;;;3.55;2.67;;;;;;;;;;5018228;28;20243;-64
2022/07/03 04:50:08;;;;;;;7.22;3.10;;;17.30;65.40;;;;;;5038954;28;20221;-64
2022/07/03 04:52:35;;;;;;;6.82;2.92;;;17.40;66.90;;;;;;5024880;28;20228;-65
2022/07/03 04:55:03;;;;;;;10.85;3.17;;;17.50;68.50;;;;;;5029569;28;20800;-64
2022/07/03 04:57:30;;;;;;;9.52;3.10;;;;;;;;;;5036157;28;20716;-64
2022/07/03 04:59:58;;;;;;;8.57;3.20;;;17.50;70.70;;;;;;5051507;28;20612;-64
2022/07/03 05:02:25;;;;;;;10.75;3.42;;;18.10;71.40;;;;;;5026071;28;20221;-64
2022/07/03 05:04:52;;;;;;;4.72;3.13;;;17.60;67.50;;;;;;5033402;28;20220;-64
2022/07/03 05:07:19;;;;;;;8.50;3.60;;;17.70;69.00;;;;;;5033230;28;20574;-64
2022/07/03 05:09:45;;;;;;;12.43;3.75;;;17.80;67.60;;;;;;5046380;28;20211;-65
2022/07/03 05:12:13;;;;;;;6.43;3.30;;;;;;;;;;5019823;28;20209;-64
2022/07/03 05:14:40;;;;;;;9.25;3.30;;;;;;;;;;5027526;28;20228;-64
2022/07/03 05:17:08;;;;;;;6.40;3.35;;;17.80;57.60;;;;;;5027756;28;20228;-64
2022/07/03 05:19:35;;;;;;;5.35;3.20;;;;;;;;;;5024055;28;20738;-64
2022/07/03 05:22:02;;;;;;;7.03;3.88;;;17.80;50.70;;;;;;5032997;28;20201;-64
2022/07/03 05:24:28;;;;;;;13.70;4.18;;;18.00;49.20;;;;;;5045306;28;20220;-64
2022/07/03 05:26:55;;;;;;;10.70;3.45;;;18.10;53.40;;;;;;5028949;28;20220;-68
2022/07/03 05:29:22;;;;;;;6.68;3.65;;;18.00;62.20;;;;;;5028630;28;20229;-64
2022/07/03 05:31:49;;;;;;;6.00;3.42;;;;;;;;;;5034585;28;20224;-64
2022/07/03 05:34:18;;;;;;;7.95;3.70;;;18.20;59.40;;;;;;5037569;28;20200;-64
2022/07/03 05:36:45;;;;;;;9.80;4.38;;;18.30;64.20;;;;;;5022951;28;20232;-64
2022/07/03 05:41:56;;;;;;;5.18;3.38;;;18.30;67.50;;;;;;5019121;28;20247;-64
2022/07/03 05:44:22;;;;;;;5.10;3.50;;;18.50;76.20;;;;;;5035122;28;20201;-64
2022/07/03 05:46:49;;;;;;;5.57;4.13;;;18.30;74.10;;;;;;5033819;28;20216;-64
2022/07/03 05:49:17;;;;;;;5.15;3.90;;;18.30;76.70;;;;;;5031664;28;20251;-64
2022/07/03 05:51:44;;;;;;;5.28;3.80;;;18.30;74.50;;;;;;5014767;28;20216;-63
2022/07/03 05:54:11;;;;;;;5.78;4.07;;;18.30;74.00;;;;;;5030252;28;20213;-64
2022/07/03 05:56:39;;;;;;;6.32;3.85;;;18.40;74.60;;;;;;5025167;28;20240;-64
2022/07/03 05:59:05;;;;;;;5.82;3.92;;;18.40;74.30;;;;;;5035095;28;20212;-64
2022/07/03 06:01:32;;;;;;;6.90;4.10;;;18.30;78.00;;;;;;5011322;28;20723;-64
2022/07/03 06:03:59;;;;;;;4.00;3.53;;;18.50;73.40;;;;;;5017207;28;21213;-64
2022/07/03 06:06:28;;;;;;;3.95;3.63;;;18.50;65.00;;;;;;5031298;28;20667;-64
2022/07/03 06:08:55;;;;;;;4.53;3.88;;;18.40;65.50;;;;;;5013575;28;20615;-64
2022/07/03 06:11:22;;;;;;;4.47;3.90;;;18.60;61.50;;;;;;5045606;28;20659;-64
2022/07/03 06:13:49;;;;;;;5.65;4.10;;;18.60;56.40;;;;;;5024307;28;20212;-64
2022/07/03 06:16:16;;;;;;;4.45;4.00;;;18.70;50.30;;;;;;5036267;28;20330;-64
2022/07/03 06:18:43;;;;;;;4.53;3.83;;;18.70;47.80;;;;;;5027375;28;20582;-64
2022/07/03 06:21:10;;;;;;;3.80;3.50;;;19.00;38.60;;;;;;5016623;28;20553;-64
2022/07/03 06:23:38;;;;;;;8.05;3.83;;;18.80;35.90;;;;;;5019637;28;20301;-64
2022/07/03 06:26:06;;;;;;;3.63;3.33;;;;;;;;;;5029972;28;20231;-63
2022/07/03 06:28:32;;;;;;;6.53;3.30;;;18.90;21.80;;;;;;5019265;28;20785;-64
2022/07/03 06:30:59;;;;;;;4.68;3.70;;;;;;;;;;5043394;28;20743;-64
2022/07/03 06:33:26;;;;;;;5.45;3.10;;;18.80;1.00;;;;;;5025219;28;20887;-64
2022/07/03 06:35:53;;;;;;;5.72;3.20;;;;;;;;;;5029402;28;20255;-64
2022/07/03 06:38:20;;;;;;;3.85;3.45;;;19.50;1.00;;;;;;5032524;28;20237;-64
2022/07/03 06:40:48;;;;;;;3.88;3.40;;;19.20;1.00;;;;;;5036275;28;20246;-64
2022/07/03 06:43:15;;;;;;;4.57;3.67;;;;;;;;;;5043143;28;20196;-64
2022/07/03 06:45:42;;;;;;;4.32;3.30;;;21.20;1.00;;;;;;5013613;28;20618;-64
2022/07/03 06:48:09;;;;;;;5.38;3.40;;;19.70;1.00;;;;;;5018351;28;20205;-64
2022/07/03 06:50:36;;;;;;;3.45;3.08;;;19.70;1.00;;;;;;5027441;28;20205;-64
2022/07/03 06:53:03;;;;;;;4.78;2.80;;;19.60;1.00;;;;;;5030456;28;20197;-66
2022/07/03 06:55:30;;;;;;;3.67;3.05;;;19.70;1.00;;;;;;5023170;28;20619;-64
2022/07/03 06:57:58;;;;;;;3.30;2.90;;;19.80;1.00;;;;;;5044640;28;20232;-65
2022/07/03 07:00:25;;;;;;;3.10;2.80;;;19.80;1.00;;;;;;5016496;28;20229;-65
2022/07/03 07:02:52;;;;;;;4.22;3.03;;;19.70;1.00;;;;;;5034788;28;20828;-65
2022/07/03 07:05:18;;;;;;;3.75;2.80;;;19.80;1.00;;;;;;5016914;28;20205;-66
2022/07/03 07:07:45;;;;;;;3.88;2.80;;;19.70;1.00;;;;;;5040741;28;20667;-64
2022/07/03 07:10:12;;;;;;;3.30;2.80;;;19.70;1.00;;;;;;5016375;28;20784;-65
2022/07/03 07:12:39;;;;;;;4.10;2.83;;;19.70;1.00;;;;;;5047664;28;21043;-64
2022/07/03 07:15:08;;;;;;;3.15;2.63;;;;;;;;;;5032261;28;20204;-66
2022/07/03 07:17:35;;;;;;;5.45;3.00;;;20.80;1.00;;;;;;5051136;28;20221;-65
2022/07/03 07:20:02;;;;;;;4.95;2.83;;;19.50;1.00;;;;;;5035690;28;20228;-64
2022/07/03 07:22:29;;;;;;;4.03;3.00;;;19.80;1.00;;;;;;5032205;28;20610;-64
2022/07/03 07:24:55;;;;;;;5.80;2.97;;;19.60;1.00;;;;;;5031522;28;20294;-65
2022/07/03 07:27:22;;;;;;;3.40;3.00;;;19.80;1.00;;;;;;5034775;28;20197;-64
2022/07/03 07:29:49;;;;;;;4.53;2.60;;;19.90;1.00;;;;;;5047671;28;20965;-64
2022/07/03 07:32:17;;;;;;;3.40;2.97;;;20.00;1.00;;;;;;5032189;28;20228;-64
2022/07/03 07:34:44;;;;;;;2.97;2.65;;;20.10;99.90;;;;;;5040059;28;20224;-64
2022/07/03 07:37:11;;;;;;;3.45;2.53;;;20.60;99.90;;;;;;5021693;28;20233;-63
2022/07/03 07:39:37;;;;;;;3.10;2.80;;;20.40;99.90;;;;;;5024597;28;20204;-64
2022/07/03 07:42:05;;;;;;;3.78;3.35;;;20.40;99.90;;;;;;5030864;28;20203;-64
2022/07/03 07:44:32;;;;;;;4.72;2.90;;;20.60;99.90;;;;;;5032234;28;20221;-65
2022/07/03 07:46:59;;;;;;;6.90;3.05;;;20.60;26.80;;;;;;5035099;28;20228;-65
2022/07/03 07:49:27;;;;;;;3.05;2.38;;;20.60;1.00;;;;;;5039324;28;20204;-65
2022/07/03 07:51:54;;;;;;;3.05;2.40;;;20.60;99.90;;;;;;5028514;28;20201;-64
2022/07/03 07:54:20;;;;;;;2.70;2.50;;;20.70;99.90;;;;;;5013810;28;20224;-65
2022/07/03 07:56:47;;;;;;;5.70;2.67;;;20.70;99.90;;;;;;5053559;28;20233;-65
2022/07/03 07:59:14;;;;;;;2.95;2.17;;;20.90;99.90;;;;;;5037800;28;20215;-65
2022/07/03 08:07:10;;;;;;;5.78;2.00;;;21.00;1.00;;;;;;5023412;28;20302;-65
2022/07/03 08:09:37;;;;;;;2.97;2.20;;;21.00;99.90;;;;;;5034846;28;20230;-65
2022/07/03 08:12:04;;;;;;;3.83;2.05;;;21.10;99.90;;;;;;5030648;28;21193;-65
2022/07/03 08:14:31;;;;;;;5.40;2.83;;;21.10;99.90;;;;;;5043613;28;20780;-64
2022/07/03 08:16:58;;;;;;;3.22;2.17;;;21.00;99.90;;;;;;5013778;28;20298;-64
2022/07/03 08:19:25;;;;;;;5.18;1.90;;;21.10;1.00;;;;;;5034651;28;20711;-64
2022/07/03 08:21:52;;;;;;;4.20;2.17;;;21.20;1.00;;;;;;5025571;28;20871;-65
2022/07/03 08:24:20;;;;;;;5.75;1.92;;;21.30;74.20;;;;;;5025714;28;20667;-65
2022/07/03 08:26:46;;;;;;;2.80;1.95;;;21.50;1.00;;;;;;5020498;28;20243;-65
2022/07/03 08:29:13;;;;;;;2.28;2.00;;;21.60;1.00;;;;;;5028612;28;20229;-65
2022/07/03 08:31:40;;;;;;;6.10;2.10;;;21.50;99.90;;;;;;5044313;28;20221;-64
2022/07/03 08:34:08;;;;;;;4.97;2.03;;;21.30;99.90;;;;;;5019998;28;20240;-65
2022/07/03 08:36:35;;;;;;;1.90;1.73;;;21.50;99.90;;;;;;5013995;28;20311;-65
2022/07/03 08:39:01;;;;;;;2.45;2.08;;;21.40;99.90;;;;;;5028318;28;20224;-64
2022/07/03 08:41:32;;;;;;;2.15;1.95;;;21.40;99.90;;;;;;5012283;28;21564;-65
2022/07/03 08:44:00;;;;;;;7.13;2.20;;;21.50;99.90;;;;;;5027585;28;20245;-65
2022/07/03 08:46:31;;;;;;;11.27;2.03;;;21.60;99.90;;;;;;5037685;28;20992;-64
2022/07/03 08:48:59;;;;;;;2.45;2.20;;;21.50;99.90;;;;;;5020345;28;20229;-65
2022/07/03 08:51:27;;;;;;;7.20;2.00;;;21.60;1.00;;;;;;5042108;28;20204;-64
2022/07/03 08:53:54;;;;;;;1.73;1.63;;;21.50;1.00;;;;;;5033626;28;20204;-64
2022/07/03 08:56:22;;;;;;;4.57;1.95;;;21.90;99.90;;;;;;5033203;28;20594;-64
2022/07/03 08:58:50;;;;;;;2.00;1.77;;;21.70;99.90;;;;;;5026191;28;20224;-65
2022/07/03 09:01:18;;;;;;;1.27;1.20;;;21.60;99.90;;;;;;5032197;28;20220;-64
2022/07/03 09:03:46;;;;;;;1.20;1.00;;;21.70;1.00;;;;;;5029764;28;20228;-64
2022/07/03 09:06:14;;;;;;;1.58;1.10;;;21.80;1.00;;;;;;5032760;28;20239;-65
2022/07/03 09:08:42;;;;;;;8.23;1.17;;;21.80;1.00;;;;;;5028541;28;20231;-64
2022/07/03 09:11:08;;;;;;;2.95;1.10;;;21.90;1.00;;;;;;5017998;28;20205;-65
2022/07/03 09:13:35;;;;;;;1.52;0.95;;;21.90;99.90;;;;;;5037047;28;20204;-64
2022/07/03 09:16:04;;;;;;;1.02;0.93;;;22.00;1.00;;;;;;5034579;28;20220;-64
2022/07/03 09:18:39;;;;;;;5.38;1.27;;;21.80;1.00;;;;;;5032486;28;20255;-65
2022/07/03 09:21:08;;;;;;;2.50;1.10;;;21.70;99.90;;;;;;5010877;28;20225;-65
2022/07/03 09:23:37;;;;;;;1.42;1.05;;;21.70;99.90;;;;;;5018922;28;20745;-65
2022/07/03 09:26:05;;;;;;;2.70;1.02;;;21.70;1.00;;;;;;5020804;28;20590;-64
2022/07/03 09:28:46;;;;;;;1.35;1.20;;;22.00;99.90;;;;;;5001760;28;20228;-64
2022/07/03 09:31:16;;;;;;;1.17;1.08;;;22.10;99.90;;;;;;5018594;28;20228;-65
2022/07/03 09:33:51;;;;;;;3.00;1.20;;;22.30;99.90;;;;;;4998281;28;20232;-64
2022/07/03 09:36:18;;;;;;;2.22;1.20;;;22.40;99.90;;;;;;5008956;28;20228;-64
2022/07/03 09:38:45;;;;;;;1.55;1.08;;;22.60;99.90;;;;;;5018175;28;21470;-64
2022/07/03 09:41:12;;;;;;;1.35;1.10;;;22.50;99.90;;;;;;5027997;28;20932;-63
2022/07/03 09:43:43;;;;;;;1.13;1.02;;;22.70;99.90;;;;;;5006615;28;20235;-63
2022/07/03 09:46:10;;;;;;;1.48;1.23;;;22.80;99.90;;;;;;5026245;28;20205;-64
2022/07/03 09:48:41;;;;;;;2.38;1.00;;;22.80;99.90;;;;;;5019659;28;20574;-65
2022/07/03 09:51:18;;;;;;;1.15;1.10;;;23.20;99.90;;;;;;5011093;28;20264;-64
2022/07/03 09:53:56;;;;;;;1.48;1.08;;;23.10;99.90;;;;;;5020913;28;20232;-65
2022/07/03 09:56:24;;;;;;;1.92;1.15;;;23.10;99.90;;;;;;5028438;28;20221;-64
2022/07/03 09:59:05;;;;;;;2.05;1.10;;;22.90;99.90;;;;;;5022528;28;21054;-65
2022/07/03 10:01:33;;;;;;;1.10;1.00;;;;;;;;;;5018057;28;20310;-63
2022/07/03 10:04:18;;;;;;;1.77;0.90;;;23.20;99.90;;;;;;5017785;28;20379;-63
2022/07/03 10:06:49;;;;;;;2.85;1.05;;;23.40;99.90;;;;;;5009903;28;20205;-64
2022/07/03 10:09:17;;;;;;;2.08;1.20;;;;;;;;;;5000593;28;20328;-64
2022/07/03 10:11:45;;;;;;;2.53;1.10;;;23.20;99.90;;;;;;5003205;28;20252;-64
2022/07/03 10:14:15;;;;;;;2.03;1.30;;;24.40;99.90;;;;;;5021617;28;20231;-63
2022/07/03 10:16:42;;;;;;;5.65;1.05;;;23.30;99.90;;;;;;5021651;28;20225;-64
2022/07/03 10:19:15;;;;;;;1.35;1.05;;;23.50;99.90;;;;;;5004698;28;20236;-65
2022/07/03 10:21:43;;;;;;;0.98;0.90;;;23.70;99.90;;;;;;5004452;28;20642;-64
2022/07/03 10:24:12;;;;;;;3.80;1.10;;;23.80;99.90;;;;;;5016082;28;20299;-64
2022/07/03 10:26:41;;;;;;;3.63;1.60;;;24.10;99.90;;;;;;5018708;28;20229;-64
2022/07/03 10:29:15;;;;;;;1.25;1.15;;;23.90;99.90;;;;;;5009424;28;20341;-65
2022/07/03 10:31:45;;;;;;;1.55;1.10;;;23.90;99.90;;;;;;5018703;28;20240;-63
2022/07/03 10:34:16;;;;;;;2.35;0.90;;;23.90;99.90;;;;;;5022809;28;20221;-65
2022/07/03 10:36:44;;;;;;;3.60;1.00;;;24.10;99.90;;;;;;5019749;28;20241;-64
2022/07/03 10:39:19;;;;;;;7.22;2.00;;;24.00;99.90;;;;;;5024751;28;20308;-64
2022/07/03 10:47:43;;;;;;;3.25;1.20;;;24.00;99.90;;;;;;5012624;28;20232;-64
2022/07/03 10:50:13;;;;;;;2.03;1.20;;;24.10;99.90;;;;;;5024666;28;20221;-63
2022/07/03 10:52:41;;;;;;;1.20;1.10;;;23.80;99.90;;;;;;5025183;28;21175;-63
2022/07/03 10:55:09;;;;;;;1.63;1.00;;;24.00;99.90;;;;;;5019832;28;20224;-64
2022/07/03 10:57:37;;;;;;;1.30;0.90;;;27.30;99.90;;;;;;5017936;28;20228;-63
2022/07/03 11:00:18;;;;;;;3.25;1.05;;;23.90;99.90;;;;;;5033819;28;20320;-64
2022/07/03 11:02:53;;;;;;;2.38;1.08;;;24.30;99.90;;;;;;5036555;28;20213;-64
2022/07/03 11:05:23;;;;;;;3.25;1.60;;;24.30;99.90;;;;;;5018263;28;20256;-65
2022/07/03 11:08:11;;;;;;;4.65;1.38;;;24.40;99.90;;;;;;5032660;28;20417;-64
2022/07/03 11:10:41;;;;;;;1.40;1.30;;;24.30;99.90;;;;;;5010253;28;20221;-64
2022/07/03 11:13:11;;;;;;;1.45;1.00;;;24.30;99.90;;;;;;5010352;28;20240;-64
2022/07/03 11:15:41;;;;;;;1.77;1.30;;;23.10;99.90;;;;;;5022119;28;20218;-64
2022/07/03 11:18:18;;;;;;;2.78;1.40;;;24.50;99.90;;;;;;5016819;28;20240;-63
2022/07/03 11:21:28;;;;;;;2.20;1.20;;;24.30;99.60;;;;;;5007661;28;20229;-63
2022/07/03 11:24:19;;;;;;;2.95;1.52;;;;;;;;;;5041964;28;20225;-63
2022/07/03 11:27:14;;;;;;;1.42;1.20;;;24.20;92.50;;;;;;5001615;28;20720;-64
2022/07/03 11:29:41;;;;;;;2.15;1.30;;;24.10;80.40;;;;;;5022585;28;20219;-64
2022/07/03 11:32:46;;;;;;;1.45;1.05;;;24.00;99.90;;;;;;5012662;28;20205;-63
2022/07/03 11:35:53;;;;;;;2.70;1.10;;;23.90;99.90;;;;;;5019468;28;20220;-63
2022/07/03 11:38:29;;;;;;;1.65;1.13;;;24.00;99.90;;;;;;5016640;28;20233;-64
2022/07/03 11:40:58;;;;;;;1.98;1.23;;;24.00;99.90;;;;;;5016797;28;20312;-64
2022/07/03 11:43:25;;;;;;;3.05;1.30;;;24.30;99.90;;;;;;4997480;28;20224;-65
2022/07/03 11:45:52;;;;;;;1.30;1.15;;;23.60;99.90;;;;;;5040040;28;20230;-63
2022/07/03 11:48:21;;;;;;;2.28;1.00;;;22.60;99.90;;;;;;5012438;28;20797;-63
2022/07/03 11:50:49;;;;;;;4.43;1.20;;;23.60;99.90;;;;;;5010417;28;20320;-64
2022/07/03 11:53:23;;;;;;;1.17;1.00;;;23.70;89.70;;;;;;5024277;28;20220;-64
2022/07/03 11:55:56;;;;;;;1.15;1.05;;;23.80;99.90;;;;;;5028864;28;20221;-64
2022/07/03 11:58:24;;;;;;;1.13;0.90;;;23.80;99.90;;;;;;5010343;28;21027;-64
2022/07/03 12:00:52;;;;;;;1.10;0.80;;;23.70;99.90;;;;;;5030940;28;20220;-64
2022/07/03 12:03:24;;;;;;;1.65;1.10;;;23.60;99.90;;;;;;5014787;28;20225;-63
2022/07/03 12:05:59;;;;;;;4.30;1.10;;;23.80;99.90;;;;;;5011421;28;20542;-63
2022/07/03 12:08:28;;;;;;;1.52;1.00;;;23.80;99.90;;;;;;5024797;28;20234;-64
2022/07/03 12:11:02;;;;;;;1.13;1.00;;;24.20;99.90;;;;;;5031712;28;20221;-64
2022/07/03 12:13:31;;;;;;;1.95;0.80;;;24.30;78.50;;;;;;4997090;28;20301;-64
2022/07/03 12:16:09;;;;;;;1.40;1.00;;;24.50;99.90;;;;;;5011317;28;20220;-64
2022/07/03 12:18:48;;;;;;;1.75;1.10;;;24.60;99.90;;;;;;5021836;28;20228;-64
2022/07/03 12:21:15;;;;;;;3.65;1.20;;;24.40;99.90;;;;;;5015612;28;21060;-63
2022/07/03 12:23:44;;;;;;;1.27;1.00;;;24.70;55.50;;;;;;5021083;28;20598;-64
2022/07/03 12:26:12;;;;;;;3.83;1.10;;;24.50;54.50;;;;;;5035850;28;20224;-64
2022/07/03 12:28:40;;;;;;;2.50;1.10;;;24.40;99.90;;;;;;5003545;28;21144;-65
2022/07/03 12:31:07;;;;;;;3.58;1.25;;;24.40;46.80;;;;;;5015229;28;20255;-64
2022/07/03 12:33:35;;;;;;;3.67;1.00;;;24.30;79.60;;;;;;5026012;28;20228;-64
2022/07/03 12:36:04;;;;;;;2.58;1.08;;;24.30;98.80;;;;;;5023150;28;21355;-64
2022/07/03 12:38:33;;;;;;;1.30;1.00;;;24.20;99.90;;;;;;5008923;28;20248;-64
2022/07/03 12:41:04;;;;;;;2.45;1.20;;;24.00;99.90;;;;;;5029808;28;20222;-63
2022/07/03 12:43:39;;;;;;;1.20;1.10;;;24.00;99.90;;;;;;5008170;28;20708;-64
2022/07/03 12:46:17;;;;;;;1.80;1.10;;;24.00;94.10;;;;;;5014995;28;20696;-63
2022/07/03 12:48:47;;;;;;;2.70;1.25;;;24.00;73.70;;;;;;5027935;28;20232;-65
2022/07/03 12:51:15;;;;;;;1.40;1.08;;;;;;;;;;5015294;28;20201;-63
2022/07/03 12:53:42;;;;;;;2.92;0.98;;;24.10;99.90;;;;;;5014137;28;20221;-63
2022/07/03 12:56:10;;;;;;;4.40;1.13;;;24.40;91.50;;;;;;5011221;28;20227;-62
2022/07/03 13:01:26;;;;;;;4.63;0.98;;;24.60;59.30;;;;;;5007085;28;20867;-62
2022/07/03 13:03:53;;;;;;;2.95;0.93;;;25.00;81.00;;;;;;5015657;28;23116;-64
2022/07/03 13:06:22;;;;;;;1.10;0.90;;;24.70;48.90;;;;;;5018116;28;20849;-64
2022/07/03 13:08:55;;;;;;;1.13;0.70;;;24.70;33.10;;;;;;5008271;28;20286;-64
2022/07/03 13:11:30;;;;;;;4.10;1.10;;;24.70;50.30;;;;;;5026702;28;20228;-64
2022/07/03 13:14:10;;;;;;;1.55;1.17;;;24.50;99.90;;;;;;5019819;28;20707;-64
2022/07/03 13:16:39;;;;;;;5.60;1.90;;;24.40;99.90;;;;;;5016477;28;20278;-64
2022/07/03 13:19:06;;;;;;;3.22;1.88;;;23.80;1.00;;;;;;5011927;28;20236;-65
2022/07/03 13:21:33;;;;;;;3.72;1.98;;;23.50;1.00;;;;;;5014047;28;20304;-64
2022/07/03 13:24:00;;;;;;;6.15;2.00;;;23.40;1.00;;;;;;5004853;28;20277;-64
2022/07/03 13:26:27;;;;;;;2.97;1.85;;;22.80;1.00;;;;;;5016830;28;20205;-64